Antioch, California
Current Conditions -  °F | °C
As of 8:53 AM on Thursday 23 Oct 2014 (Local Time) from KCCR Reporting Station
Clear Clear  
Wind Chill: 61°   Ceiling: Unl
Heat Index: 61°   Visibility: 10mi
Dew Point: 55°   Wind: 6mph
Humidity: 81%   Direction: 150°SSE
Pressure: 30.07"   Gusts: NA
Location:  38.02°N, 121.81°W
Report Text: KCCR 231553Z 15005KT 10SM CLR 16/13 A3007 RMK AO2 SLP167 T01610128
Loading
Personal Weather Stations






























Interactive Weather Map New forecast layout! Learn more

10-Day Weather Forecast

Advertisements
Track Severe Weather on mobile